Ritchie, South Africa
Current Conditions -  °F | °C
As of 10:00 PM on Friday 19 Dec 2014 (Local Time) from FABL Reporting Station
NA  
Wind Chill: 72°   Ceiling: NA
Heat Index: 72°   Visibility: 6mi
Dew Point: 32°   Wind: 8mph
Humidity: 23%   Direction: 250°WSW
Pressure: 30"   Gusts: NA
Location:  29.04°S, 24.6°E
Report Text: FABL 192000Z AUTO 25007KT 9999 ////// 22/00 Q1016
Loading
Personal Weather Stations






























Interactive Weather Map New forecast layout! Learn more

10-Day Weather Forecast

Advertisements
Track Severe Weather on mobile